createdAt,value
2023-03-24T00:02:08.665Z,98980.41
2023-03-24T00:04:36.905Z,98971.48
2023-03-24T00:07:05.842Z,98965.62
2023-03-24T00:09:34.120Z,98966.22
2023-03-24T00:12:02.099Z,98964.98
2023-03-24T00:14:38.792Z,98966.30
2023-03-24T00:17:09.528Z,98961.13
2023-03-24T00:19:38.605Z,98955.77
2023-03-24T00:22:08.220Z,98955.06
2023-03-24T00:24:36.554Z,98957.00
2023-03-24T00:27:04.638Z,98951.30
2023-03-24T00:29:36.211Z,98951.42
2023-03-24T00:32:04.817Z,98949.91
2023-03-24T00:34:34.389Z,98952.48
2023-03-24T00:37:02.561Z,98951.84
2023-03-24T00:39:30.622Z,98944.13
2023-03-24T00:42:01.889Z,98946.52
2023-03-24T00:44:30.058Z,98943.88
2023-03-24T00:46:58.195Z,98939.75
2023-03-24T00:49:43.055Z,98937.45
2023-03-24T00:52:20.767Z,98936.73
2023-03-24T00:54:55.441Z,98932.77
2023-03-24T00:57:23.457Z,98931.83
2023-03-24T00:59:54.580Z,98928.83
2023-03-24T01:02:25.007Z,98924.77
2023-03-24T01:04:58.220Z,98928.28
2023-03-24T01:07:27.009Z,98925.52
2023-03-24T01:09:57.955Z,98927.93
2023-03-24T01:12:32.125Z,98928.19
2023-03-24T01:15:01.205Z,98928.36
2023-03-24T01:17:31.084Z,98925.00
2023-03-24T01:19:59.132Z,98920.82
2023-03-24T01:22:29.029Z,98920.65
2023-03-24T01:24:58.020Z,98918.45
2023-03-24T01:27:26.084Z,98917.11
2023-03-24T01:29:59.900Z,98922.50
2023-03-24T01:32:29.525Z,98921.71
2023-03-24T01:34:57.918Z,98920.02
2023-03-24T01:37:26.272Z,98915.20
2023-03-24T01:39:54.220Z,98920.50
2023-03-24T01:42:24.175Z,98917.48
2023-03-24T01:44:55.123Z,98914.61
2023-03-24T01:47:23.065Z,98914.66
2023-03-24T01:49:57.151Z,98910.52
2023-03-24T01:52:32.770Z,98910.77
2023-03-24T01:55:14.286Z,98911.73
2023-03-24T01:57:44.682Z,98915.61
2023-03-24T02:00:15.165Z,98914.58
2023-03-24T02:03:08.014Z,98920.92
2023-03-24T02:05:41.090Z,98926.40
2023-03-24T02:08:39.212Z,98929.16
2023-03-24T02:11:07.732Z,98932.48
2023-03-24T02:13:43.575Z,98925.66
2023-03-24T02:16:15.112Z,98935.16
2023-03-24T02:19:25.090Z,98935.48
2023-03-24T02:22:35.342Z,98939.28
2023-03-24T02:25:16.529Z,98930.38
2023-03-24T02:28:02.864Z,98933.80
2023-03-24T02:31:08.740Z,98931.57
2023-03-24T02:34:07.384Z,98929.23
2023-03-24T02:37:00.575Z,98934.73
2023-03-24T02:39:56.962Z,98932.56
2023-03-24T02:42:41.017Z,98935.27
2023-03-24T02:45:24.618Z,98933.69
2023-03-24T02:48:05.551Z,98937.01
2023-03-24T02:50:58.438Z,98939.83
2023-03-24T02:53:50.068Z,98942.84
2023-03-24T02:56:58.579Z,98949.46
2023-03-24T02:59:45.049Z,98947.55
2023-03-24T03:03:12.680Z,98948.12
2023-03-24T03:05:53.919Z,98940.37
2023-03-24T03:08:24.485Z,98946.77
2023-03-24T03:10:52.620Z,98945.84
2023-03-24T03:13:28.596Z,98941.55
2023-03-24T03:15:58.972Z,98948.27
2023-03-24T03:18:31.191Z,98948.66
2023-03-24T03:21:04.684Z,98951.14
2023-03-24T03:23:41.353Z,98952.70
2023-03-24T03:26:12.512Z,98950.49
2023-03-24T03:28:50.263Z,98954.30
2023-03-24T03:31:23.964Z,98951.30
2023-03-24T03:33:59.916Z,98951.70
2023-03-24T03:36:30.355Z,98954.73
2023-03-24T03:39:16.330Z,98948.92
2023-03-24T03:41:45.735Z,98952.55
2023-03-24T03:44:14.257Z,98953.05
2023-03-24T03:46:43.498Z,98954.07
2023-03-24T03:49:13.716Z,98961.12
2023-03-24T03:51:47.544Z,98958.42
2023-03-24T03:54:15.549Z,98965.19
2023-03-24T03:56:46.758Z,98965.39
2023-03-24T03:59:39.073Z,98969.97
2023-03-24T04:02:17.162Z,98971.81
2023-03-24T04:05:05.230Z,98969.95
2023-03-24T04:08:18.851Z,98976.83
2023-03-24T04:11:26.180Z,98976.54
2023-03-24T04:14:37.980Z,98973.70
2023-03-24T04:17:39.281Z,98977.21
2023-03-24T04:20:17.073Z,98977.47
2023-03-24T04:23:26.522Z,98975.94
2023-03-24T04:26:26.780Z,98981.86
2023-03-24T04:29:18.298Z,98985.93
2023-03-24T04:31:54.086Z,98988.38
2023-03-24T04:34:26.184Z,98982.17
2023-03-24T04:37:12.545Z,98981.81
2023-03-24T04:40:13.233Z,98983.23
2023-03-24T04:42:46.973Z,98983.88
2023-03-24T04:45:15.437Z,98987.67
2023-03-24T04:48:04.759Z,98989.70
2023-03-24T04:50:51.488Z,98994.80
2023-03-24T04:53:23.829Z,99000.29
2023-03-24T04:56:36.684Z,99006.55
2023-03-24T04:59:13.043Z,99010.86
2023-03-24T05:01:42.031Z,99009.71
2023-03-24T05:04:41.918Z,99016.54
2023-03-24T05:07:29.291Z,99022.17
2023-03-24T05:09:59.712Z,99015.81
2023-03-24T05:12:35.617Z,99017.40
2023-03-24T05:15:28.481Z,99018.45
2023-03-24T05:18:03.795Z,99016.61
2023-03-24T05:20:32.320Z,99017.61
2023-03-24T05:23:08.505Z,99014.87
2023-03-24T05:25:36.470Z,99012.90
2023-03-24T05:28:05.694Z,99010.65
2023-03-24T05:30:33.994Z,99012.50
2023-03-24T05:33:12.181Z,99011.06
2023-03-24T05:35:40.943Z,99009.96
2023-03-24T05:38:13.486Z,99010.80
2023-03-24T05:40:43.272Z,99010.83
2023-03-24T05:43:14.689Z,99012.88
2023-03-24T05:45:50.076Z,99017.27
2023-03-24T05:48:29.227Z,99023.48
2023-03-24T05:53:28.616Z,99022.59
2023-03-24T05:56:26.236Z,99025.68
2023-03-24T05:59:14.876Z,99023.83
2023-03-24T06:02:01.929Z,99024.18
2023-03-24T06:04:49.297Z,99025.02
2023-03-24T06:07:22.253Z,99029.81
2023-03-24T06:09:52.928Z,99025.21
2023-03-24T06:12:23.493Z,99024.61
2023-03-24T06:15:02.410Z,99029.08
2023-03-24T06:17:34.003Z,99034.93
2023-03-24T06:20:15.019Z,99031.05
2023-03-24T06:22:59.255Z,99026.56
2023-03-24T06:25:30.264Z,99026.94
2023-03-24T06:28:20.819Z,99029.69
2023-03-24T06:30:49.684Z,99028.56
2023-03-24T06:33:26.013Z,99026.35
2023-03-24T06:35:55.119Z,99031.73
2023-03-24T06:38:23.712Z,99031.89
2023-03-24T06:40:52.381Z,99032.60
2023-03-24T06:43:20.424Z,99028.23
2023-03-24T06:45:52.996Z,99026.92
2023-03-24T06:48:24.266Z,99025.71
2023-03-24T06:50:55.149Z,99025.05
2023-03-24T06:53:25.967Z,99025.38
2023-03-24T06:55:54.222Z,99025.56
2023-03-24T06:58:24.091Z,99033.69
2023-03-24T07:01:05.995Z,99034.83
2023-03-24T07:04:04.813Z,99031.52
2023-03-24T07:09:32.744Z,99039.89
2023-03-24T07:12:04.980Z,99033.09
2023-03-24T07:14:34.391Z,99030.44
2023-03-24T07:17:02.675Z,99030.01
2023-03-24T07:19:40.560Z,99029.69
2023-03-24T07:22:47.898Z,99031.16
2023-03-24T07:25:41.244Z,99028.40
2023-03-24T07:28:20.650Z,99034.34
2023-03-24T07:30:50.213Z,99037.61
2023-03-24T07:33:21.071Z,99041.46
2023-03-24T07:35:49.458Z,99045.10
2023-03-24T07:38:21.490Z,99044.92
2023-03-24T07:40:51.029Z,99048.41
2023-03-24T07:43:19.141Z,99042.90
2023-03-24T07:46:02.396Z,99044.23
2023-03-24T07:48:32.936Z,99045.66
2023-03-24T07:51:03.100Z,99040.24
2023-03-24T07:53:53.913Z,99039.59
2023-03-24T07:56:27.705Z,99040.08
2023-03-24T07:58:57.796Z,99041.95
2023-03-24T08:01:57.814Z,99045.58
2023-03-24T08:04:42.976Z,99040.33
2023-03-24T08:07:30.382Z,99042.80
2023-03-24T08:09:58.385Z,99035.69
2023-03-24T08:12:27.512Z,99036.36
2023-03-24T08:14:55.715Z,99034.99
2023-03-24T08:17:24.438Z,99030.63
2023-03-24T08:19:59.494Z,99031.04
2023-03-24T08:22:30.369Z,99035.33
2023-03-24T08:24:58.319Z,99031.05
2023-03-24T08:27:29.003Z,99033.60
2023-03-24T08:29:57.203Z,99032.92
2023-03-24T08:32:25.490Z,99027.57
2023-03-24T08:34:54.403Z,99030.86
2023-03-24T08:37:22.427Z,99033.38
2023-03-24T08:39:51.408Z,99031.45
2023-03-24T08:42:19.506Z,99025.52
2023-03-24T08:44:49.915Z,99028.27
2023-03-24T08:47:18.530Z,99023.81
2023-03-24T08:49:46.949Z,99025.75
2023-03-24T08:52:16.759Z,99030.80
2023-03-24T08:54:45.273Z,99027.23
2023-03-24T08:57:13.381Z,99019.69
2023-03-24T08:59:41.634Z,99012.49
2023-03-24T09:02:11.751Z,99014.73
2023-03-24T09:04:43.050Z,99013.62
2023-03-24T09:07:11.908Z,99021.73
2023-03-24T09:09:40.226Z,99022.08
2023-03-24T09:12:09.932Z,99025.13
2023-03-24T09:14:38.476Z,99022.30
2023-03-24T09:17:07.029Z,99020.15
2023-03-24T09:19:35.322Z,99022.94
2023-03-24T09:22:03.532Z,99018.56
2023-03-24T09:24:32.101Z,99019.77
2023-03-24T09:27:00.770Z,99015.13
2023-03-24T09:29:30.187Z,99014.70
2023-03-24T09:32:04.968Z,99007.95
2023-03-24T09:34:33.876Z,99010.15
2023-03-24T09:37:02.056Z,99012.93
2023-03-24T09:39:31.557Z,99006.30
2023-03-24T09:42:01.381Z,99000.27
2023-03-24T09:44:43.580Z,99001.46
2023-03-24T09:47:59.352Z,98995.84
2023-03-24T09:50:29.629Z,98993.06
2023-03-24T09:53:00.943Z,98993.58
2023-03-24T09:55:29.722Z,98996.73
2023-03-24T09:58:04.032Z,98991.95
2023-03-24T10:00:34.649Z,98991.70
2023-03-24T10:03:21.209Z,98994.73
2023-03-24T10:06:02.095Z,98995.34
2023-03-24T10:08:50.598Z,98999.11
2023-03-24T10:11:21.704Z,98998.96
2023-03-24T10:14:25.638Z,98996.02
2023-03-24T10:16:58.850Z,98992.62
2023-03-24T10:19:45.593Z,98987.95
2023-03-24T10:22:29.685Z,98989.11
2023-03-24T10:25:06.652Z,98987.59
2023-03-24T10:27:55.362Z,98983.64
2023-03-24T10:30:29.403Z,98978.18
2023-03-24T10:32:58.626Z,98981.20
2023-03-24T10:35:29.937Z,98976.45
2023-03-24T10:37:59.505Z,98968.84
2023-03-24T10:40:33.540Z,98965.29
2023-03-24T10:43:06.662Z,98962.90
2023-03-24T10:45:44.314Z,98958.55
2023-03-24T10:48:14.281Z,98955.79
2023-03-24T10:50:44.703Z,98952.88
2023-03-24T10:53:19.866Z,98947.64
2023-03-24T10:55:48.377Z,98940.24
2023-03-24T10:58:37.558Z,98941.20
2023-03-24T11:01:27.321Z,98936.65
2023-03-24T11:04:05.555Z,98930.77
2023-03-24T11:06:34.204Z,98935.27
2023-03-24T11:09:28.569Z,98926.57
2023-03-24T11:11:59.825Z,98930.33
2023-03-24T11:14:28.962Z,98931.11
2023-03-24T11:17:11.667Z,98934.84
2023-03-24T11:19:40.031Z,98929.30
2023-03-24T11:22:09.918Z,98923.77
2023-03-24T11:24:39.041Z,98923.92
2023-03-24T11:27:07.757Z,98921.59
2023-03-24T11:29:39.244Z,98918.83
2023-03-24T11:32:16.817Z,98916.41
2023-03-24T11:34:46.964Z,98918.23
2023-03-24T11:37:22.319Z,98915.73
2023-03-24T11:40:21.337Z,98913.15
2023-03-24T11:43:00.890Z,98911.46
2023-03-24T11:45:39.228Z,98906.52
2023-03-24T11:48:26.976Z,98902.10
2023-03-24T11:50:56.407Z,98901.08
2023-03-24T11:53:30.882Z,98897.15
2023-03-24T11:56:17.202Z,98891.91
2023-03-24T11:58:47.521Z,98884.15
2023-03-24T12:01:22.301Z,98880.54
2023-03-24T12:03:59.529Z,98880.54
2023-03-24T12:06:52.503Z,98878.86
2023-03-24T12:09:39.843Z,98870.92
2023-03-24T12:12:30.765Z,98868.11
2023-03-24T12:15:27.170Z,98865.71
2023-03-24T12:18:09.651Z,98861.10
2023-03-24T12:20:58.493Z,98864.86
2023-03-24T12:23:38.350Z,98863.45
2023-03-24T12:26:17.493Z,98866.96
2023-03-24T12:29:17.754Z,98864.81
2023-03-24T12:32:04.754Z,98864.96
2023-03-24T12:34:43.351Z,98867.97
2023-03-24T12:37:20.935Z,98861.74
2023-03-24T12:39:59.811Z,98865.36
2023-03-24T12:42:31.957Z,98859.27
2023-03-24T12:45:05.141Z,98861.21
2023-03-24T12:48:09.618Z,98857.16
2023-03-24T12:51:07.182Z,98856.88
2023-03-24T12:53:54.049Z,98851.70
2023-03-24T12:56:33.768Z,98847.94
2023-03-24T12:59:23.954Z,98844.58
2023-03-24T13:01:56.186Z,98838.02
2023-03-24T13:04:29.550Z,98836.30
2023-03-24T13:07:14.669Z,98833.06
2023-03-24T13:09:57.193Z,98830.41
2023-03-24T13:12:33.327Z,98829.70
2023-03-24T13:15:10.282Z,98831.68
2023-03-24T13:17:40.687Z,98836.74
2023-03-24T13:20:13.802Z,98835.29
2023-03-24T13:22:42.324Z,98826.60
2023-03-24T13:25:36.430Z,98827.90
2023-03-24T13:28:07.214Z,98821.35
2023-03-24T13:30:41.719Z,98823.13
2023-03-24T13:33:26.560Z,98822.32
2023-03-24T13:36:21.638Z,98819.21
2023-03-24T13:38:54.785Z,98814.48
2023-03-24T13:41:24.711Z,98809.54
2023-03-24T13:44:17.753Z,98804.83
2023-03-24T13:47:15.312Z,98805.79
2023-03-24T13:49:53.849Z,98803.15
2023-03-24T13:52:35.293Z,98800.16
2023-03-24T13:55:27.570Z,98804.23
2023-03-24T13:57:57.318Z,98802.44
2023-03-24T14:00:26.660Z,98799.70
2023-03-24T14:02:56.765Z,98800.05
2023-03-24T14:05:44.139Z,98800.70
2023-03-24T14:08:16.153Z,98804.02
2023-03-24T14:10:48.456Z,98797.27
2023-03-24T14:13:16.624Z,98794.27
2023-03-24T14:15:58.498Z,98795.63
2023-03-24T14:18:29.335Z,98795.86
2023-03-24T14:20:57.657Z,98795.88
2023-03-24T14:23:43.468Z,98794.66
2023-03-24T14:26:16.555Z,98794.74
2023-03-24T14:28:46.751Z,98793.77
2023-03-24T14:31:30.959Z,98795.25
2023-03-24T14:34:05.978Z,98792.68
2023-03-24T14:36:42.089Z,98794.84
2023-03-24T14:39:24.022Z,98789.17
2023-03-24T14:41:52.807Z,98789.02
2023-03-24T14:44:55.406Z,98791.08
2023-03-24T14:47:31.123Z,98789.94
2023-03-24T14:50:01.241Z,98787.28
2023-03-24T14:52:43.592Z,98784.67
2023-03-24T14:55:21.851Z,98787.80
2023-03-24T14:58:23.931Z,98779.00
2023-03-24T15:01:07.273Z,98780.48
2023-03-24T15:03:49.775Z,98773.77
2023-03-24T15:06:23.474Z,98769.59
2023-03-24T15:09:14.004Z,98772.58
2023-03-24T15:11:42.161Z,98770.94
2023-03-24T15:14:16.379Z,98773.88
2023-03-24T15:16:51.844Z,98776.40
2023-03-24T15:19:25.662Z,98772.31
2023-03-24T15:22:11.693Z,98772.83
2023-03-24T15:24:43.044Z,98772.29
2023-03-24T15:27:33.732Z,98770.19
2023-03-24T15:30:01.893Z,98771.06
2023-03-24T15:32:39.126Z,98772.52
2023-03-24T15:35:08.895Z,98775.86
2023-03-24T15:37:42.932Z,98778.53
2023-03-24T15:40:27.152Z,98782.13
2023-03-24T15:42:57.750Z,98777.39
2023-03-24T15:45:31.181Z,98776.69
2023-03-24T15:48:08.337Z,98775.91
2023-03-24T15:50:38.817Z,98772.48
2023-03-24T15:53:24.996Z,98772.50
2023-03-24T15:56:04.249Z,98776.45
2023-03-24T15:58:45.827Z,98775.05
2023-03-24T16:01:20.081Z,98780.16
2023-03-24T16:03:48.858Z,98779.08
2023-03-24T16:06:30.889Z,98774.59
2023-03-24T16:09:00.390Z,98781.85
2023-03-24T16:11:30.111Z,98780.33
2023-03-24T16:14:22.012Z,98784.06
2023-03-24T16:16:54.210Z,98790.33
2023-03-24T16:19:22.466Z,98792.46
2023-03-24T16:21:51.103Z,98791.98
2023-03-24T16:24:19.014Z,98795.14
2023-03-24T16:26:47.313Z,98793.48
2023-03-24T16:29:21.942Z,98795.76
2023-03-24T16:31:51.913Z,98796.61
2023-03-24T16:34:21.787Z,98800.99
2023-03-24T16:36:52.291Z,98798.85
2023-03-24T16:39:25.116Z,98803.21
2023-03-24T16:41:54.215Z,98801.45
2023-03-24T16:44:22.638Z,98805.74
2023-03-24T16:46:51.920Z,98800.52
2023-03-24T16:49:20.104Z,98801.74
2023-03-24T16:51:48.484Z,98798.60
2023-03-24T16:54:24.077Z,98798.77
2023-03-24T16:56:52.322Z,98798.86
2023-03-24T16:59:20.885Z,98794.23
2023-03-24T17:01:52.296Z,98796.86
2023-03-24T17:04:22.353Z,98799.27
2023-03-24T17:06:55.368Z,98796.79
2023-03-24T17:09:24.353Z,98796.35
2023-03-24T17:11:53.891Z,98794.80
2023-03-24T17:14:23.842Z,98794.56
2023-03-24T17:16:53.787Z,98796.54
2023-03-24T17:19:22.788Z,98794.27
2023-03-24T17:21:58.796Z,98795.30
2023-03-24T17:24:28.343Z,98796.63
2023-03-24T17:26:56.706Z,98796.05
2023-03-24T17:29:24.928Z,98796.77
2023-03-24T17:31:53.853Z,98800.45
2023-03-24T17:34:28.807Z,98801.85
2023-03-24T17:36:56.974Z,98803.88
2023-03-24T17:39:25.000Z,98802.88
2023-03-24T17:42:01.322Z,98804.31
2023-03-24T17:44:29.712Z,98802.91
2023-03-24T17:46:59.630Z,98805.80
2023-03-24T17:49:47.526Z,98809.02
2023-03-24T17:52:16.213Z,98810.20
2023-03-24T17:54:45.885Z,98814.51
2023-03-24T17:57:14.606Z,98815.91
2023-03-24T17:59:44.112Z,98819.48
2023-03-24T18:02:12.986Z,98817.27
2023-03-24T18:04:41.375Z,98825.04
2023-03-24T18:10:11.348Z,98825.25
2023-03-24T18:12:39.653Z,98821.77
2023-03-24T18:15:09.363Z,98822.65
2023-03-24T18:17:37.596Z,98822.42
2023-03-24T18:20:11.279Z,98820.26
2023-03-24T18:22:41.801Z,98821.48
2023-03-24T18:25:11.234Z,98820.79
2023-03-24T18:27:45.754Z,98819.14
2023-03-24T18:30:16.281Z,98825.83
2023-03-24T18:32:44.590Z,98838.19
2023-03-24T18:35:18.519Z,98842.87
2023-03-24T18:37:46.481Z,98839.42
2023-03-24T18:40:15.938Z,98840.40
2023-03-24T18:42:45.086Z,98841.16
2023-03-24T18:45:18.549Z,98839.65
2023-03-24T18:47:47.991Z,98838.64
2023-03-24T18:50:16.725Z,98840.11
2023-03-24T18:52:49.872Z,98840.05
2023-03-24T18:55:18.618Z,98840.57
2023-03-24T18:57:46.783Z,98842.64
2023-03-24T19:00:15.467Z,98838.98
2023-03-24T19:02:44.518Z,98840.44
2023-03-24T19:05:14.248Z,98835.98
2023-03-24T19:07:42.952Z,98832.78
2023-03-24T19:10:11.847Z,98836.23
2023-03-24T19:12:40.029Z,98827.58
2023-03-24T19:15:13.568Z,98827.82
2023-03-24T19:17:42.681Z,98825.67
2023-03-24T19:20:11.827Z,98820.24
2023-03-24T19:22:41.745Z,98818.38
2023-03-24T19:25:09.937Z,98813.03
2023-03-24T19:27:47.821Z,98811.94
2023-03-24T19:30:17.247Z,98812.24
2023-03-24T19:32:48.086Z,98805.65
2023-03-24T19:35:21.176Z,98807.13
2023-03-24T19:37:49.626Z,98806.14
2023-03-24T19:40:23.124Z,98805.61
2023-03-24T19:42:51.191Z,98807.30
2023-03-24T19:45:20.197Z,98806.96
2023-03-24T19:47:48.337Z,98801.69
2023-03-24T19:50:17.603Z,98795.48
2023-03-24T19:52:50.644Z,98789.43
2023-03-24T19:55:19.770Z,98790.23
2023-03-24T19:57:47.839Z,98783.85
2023-03-24T20:00:16.915Z,98775.59
2023-03-24T20:02:45.843Z,98773.94
2023-03-24T20:05:14.904Z,98773.11
2023-03-24T20:07:43.694Z,98772.20
2023-03-24T20:10:11.866Z,98772.11
2023-03-24T20:12:45.381Z,98768.80
2023-03-24T20:15:15.505Z,98765.98
2023-03-24T20:17:43.974Z,98762.79
2023-03-24T20:20:15.755Z,98763.42
2023-03-24T20:22:48.764Z,98759.59
2023-03-24T20:25:18.387Z,98753.71
2023-03-24T20:27:47.632Z,98752.52
2023-03-24T20:30:20.167Z,98751.77
2023-03-24T20:32:48.879Z,98749.54
2023-03-24T20:35:18.478Z,98749.00
2023-03-24T20:37:47.224Z,98751.08
2023-03-24T20:40:15.639Z,98746.00
2023-03-24T20:42:47.095Z,98742.36
2023-03-24T20:45:15.504Z,98738.34
2023-03-24T20:47:44.362Z,98738.57
2023-03-24T20:50:12.539Z,98737.85
2023-03-24T20:52:47.458Z,98735.37
2023-03-24T20:55:36.053Z,98734.15
2023-03-24T20:58:08.418Z,98735.89
2023-03-24T21:00:42.035Z,98732.13
2023-03-24T21:03:11.882Z,98730.38
2023-03-24T21:05:39.949Z,98728.09
2023-03-24T21:08:08.125Z,98725.89
2023-03-24T21:10:36.655Z,98722.98
2023-03-24T21:13:08.617Z,98726.20
2023-03-24T21:15:44.268Z,98726.13
2023-03-24T21:18:18.584Z,98725.60
2023-03-24T21:20:57.440Z,98723.20
2023-03-24T21:23:25.651Z,98718.26
2023-03-24T21:25:56.435Z,98715.70
2023-03-24T21:28:28.210Z,98708.83
2023-03-24T21:30:58.603Z,98711.71
2023-03-24T21:33:26.676Z,98708.01
2023-03-24T21:35:55.707Z,98707.18
2023-03-24T21:38:24.195Z,98709.44
2023-03-24T21:40:58.990Z,98701.14
2023-03-24T21:43:29.326Z,98694.59
2023-03-24T21:45:57.697Z,98684.48
2023-03-24T21:48:28.252Z,98678.89
2023-03-24T21:50:56.707Z,98677.95
2023-03-24T21:53:26.246Z,98675.08
2023-03-24T21:55:55.751Z,98678.85
2023-03-24T21:58:24.420Z,98688.52
2023-03-24T22:00:52.481Z,98694.70
2023-03-24T22:03:22.948Z,98695.45
2023-03-24T22:05:51.722Z,98689.84
2023-03-24T22:08:22.764Z,98685.58
2023-03-24T22:10:54.386Z,98681.36
2023-03-24T22:13:27.577Z,98677.80
2023-03-24T22:15:59.622Z,98678.94
2023-03-24T22:18:28.760Z,98670.96
2023-03-24T22:21:06.920Z,98672.90
2023-03-24T22:23:38.842Z,98669.05
2023-03-24T22:26:11.750Z,98671.27
2023-03-24T22:28:40.584Z,98684.96
2023-03-24T22:31:10.317Z,98689.82
2023-03-24T22:33:38.552Z,98678.64
2023-03-24T22:36:08.158Z,98674.02
2023-03-24T22:38:36.319Z,98663.55
2023-03-24T22:41:12.109Z,98653.95
2023-03-24T22:43:42.089Z,98651.16
2023-03-24T22:46:10.690Z,98654.98
2023-03-24T22:48:40.314Z,98659.15
2023-03-24T22:51:09.657Z,98659.61
2023-03-24T22:53:42.471Z,98664.30
2023-03-24T22:56:12.010Z,98665.90
2023-03-24T22:58:40.329Z,98659.23
2023-03-24T23:01:10.605Z,98656.98
2023-03-24T23:03:39.032Z,98649.05
2023-03-24T23:06:15.991Z,98650.17
2023-03-24T23:08:44.865Z,98653.57
2023-03-24T23:11:14.259Z,98651.28
2023-03-24T23:14:06.782Z,98654.63
2023-03-24T23:16:38.030Z,98653.60
2023-03-24T23:19:09.599Z,98648.45
2023-03-24T23:21:39.394Z,98646.07
2023-03-24T23:24:07.592Z,98644.86
2023-03-24T23:26:39.361Z,98636.25
2023-03-24T23:29:07.590Z,98637.36
2023-03-24T23:31:37.028Z,98632.10
2023-03-24T23:34:11.342Z,98633.30
2023-03-24T23:36:49.922Z,98630.58
2023-03-24T23:39:18.391Z,98630.35
2023-03-24T23:41:46.508Z,98622.31
2023-03-24T23:44:15.108Z,98619.48
2023-03-24T23:46:45.547Z,98616.61
2023-03-24T23:49:13.610Z,98618.01
2023-03-24T23:51:41.686Z,98616.02
2023-03-24T23:54:09.615Z,98617.00
2023-03-24T23:56:40.627Z,98607.20
2023-03-24T23:59:09.990Z,98596.75
